Reykjavik, Iceland
Current Conditions -  °F | °C
As of 1:00 PM on Thursday 23 Oct 2014 (Local Time) from BIRK Reporting Station
Light Rain Light Rain  
Wind Chill:   Ceiling: 2000
Heat Index:   Visibility: 6mi
Dew Point:   Wind: 10mph
Humidity: 87%   Direction: 270°W
Pressure: 29.03"   Gusts: NA
Location:  64.14°N, 21.92°W
Report Text: BIRK 231300Z 27009KT 230V300 9999 -RA SCT014 BKN020 OVC050 04/02 Q0983
Loading
Personal Weather Stations






























Interactive Weather Map
Tropical Storm Tracking
New forecast layout! Learn more

10-Day Weather Forecast

Advertisements
Track Severe Weather on mobile